Time;durP1;ratioP1;P1;durP2;ratioP2;P2;SDS_P1;SDS_P2;PMS_P1;PMS_P2;Temp;Humidity;BMP_temperature;BMP_pressure;BME280_temperature;BME280_humidity;BME280_pressure;Samples;Min_cycle;Max_cycle;Signal;HPM_P1;HPM_P2
2023/03/22 00:01:52;;;;;;;62.50;31.00;;;;;;;8.69;88.78;100117.93;106508;1275;22517;-56
2023/03/22 00:04:24;;;;;;;62.70;31.20;;;;;;;8.68;88.91;100119.79;106905;1264;24225;-57
2023/03/22 00:06:55;;;;;;;69.60;33.40;;;;;;;8.68;88.90;100114.60;106828;1275;22533;-60
2023/03/22 00:09:26;;;;;;;62.10;32.00;;;;;;;8.69;89.14;100111.63;106707;1260;25294;-55
2023/03/22 00:11:57;;;;;;;64.50;32.60;;;;;;;8.67;89.10;100109.10;106531;1261;25402;-58
2023/03/22 00:14:28;;;;;;;56.80;31.20;;;;;;;8.67;89.17;100107.48;106589;1267;22664;-54
2023/03/22 00:16:59;;;;;;;62.30;30.90;;;;;;;8.67;89.23;100104.02;106626;1269;22654;-54
2023/03/22 00:19:32;;;;;;;62.20;31.30;;;;;;;8.67;89.31;100098.99;106628;1259;22520;-57
2023/03/22 00:22:05;;;;;;;62.30;30.20;;;;;;;8.69;89.41;100097.45;106912;1270;24221;-55
2023/03/22 00:24:36;;;;;;;62.30;30.50;;;;;;;8.70;89.42;100096.77;106565;1267;24363;-57
2023/03/22 00:27:07;;;;;;;65.10;31.50;;;;;;;8.69;89.55;100091.48;106576;1267;22617;-56
2023/03/22 00:29:38;;;;;;;67.70;32.70;;;;;;;8.71;89.71;100087.79;106636;1275;22675;-55
2023/03/22 00:32:09;;;;;;;59.80;30.40;;;;;;;8.70;89.95;100083.61;106521;1274;25297;-54
2023/03/22 00:34:40;;;;;;;62.40;30.10;;;;;;;8.68;89.91;100080.65;106536;1275;22540;-60
2023/03/22 00:37:11;;;;;;;58.80;30.60;;;;;;;8.68;90.11;100077.00;106609;1273;24384;-55
2023/03/22 00:39:42;;;;;;;60.00;29.60;;;;;;;8.67;90.22;100074.44;106566;1260;22514;-55
2023/03/22 00:42:13;;;;;;;63.60;28.40;;;;;;;8.67;90.25;100066.70;106741;1275;25580;-55
2023/03/22 00:44:44;;;;;;;58.10;30.00;;;;;;;8.68;90.34;100067.16;106676;1271;24262;-54
2023/03/22 00:47:15;;;;;;;62.20;29.00;;;;;;;8.65;90.50;100063.87;106628;1267;24278;-56
2023/03/22 00:49:45;;;;;;;62.00;30.00;;;;;;;8.63;90.53;100057.54;106770;1275;22667;-55
2023/03/22 00:52:16;;;;;;;57.40;28.80;;;;;;;8.62;90.70;100053.92;106681;1260;22563;-59
2023/03/22 00:54:47;;;;;;;50.50;26.60;;;;;;;8.60;90.74;100051.71;106529;1267;25517;-59
2023/03/22 00:57:18;;;;;;;56.20;28.80;;;;;;;8.59;91.01;100045.34;106627;1275;25309;-56
2023/03/22 00:59:49;;;;;;;59.30;30.00;;;;;;;8.59;90.89;100045.15;106541;1267;22555;-56
2023/03/22 01:02:28;;;;;;;56.20;29.00;;;;;;;8.59;91.11;100046.67;106593;1269;22577;-58
2023/03/22 01:04:59;;;;;;;60.70;29.00;;;;;;;8.58;91.10;100043.12;106661;1275;23946;-57
2023/03/22 01:07:30;;;;;;;56.50;27.90;;;;;;;8.58;91.15;100042.81;106494;1257;24282;-55
2023/03/22 01:10:01;;;;;;;55.40;28.70;;;;;;;8.58;91.15;100039.02;106539;1275;25284;-57
2023/03/22 01:12:32;;;;;;;53.70;27.50;;;;;;;8.58;91.12;100036.23;106524;1264;22538;-56
2023/03/22 01:15:03;;;;;;;57.10;28.50;;;;;;;8.58;91.27;100030.56;106637;1274;25488;-55
2023/03/22 01:17:34;;;;;;;61.90;28.50;;;;;;;8.57;91.41;100028.95;106583;1259;22618;-57
2023/03/22 01:20:08;;;;;;;53.10;27.60;;;;;;;8.57;91.26;100025.38;106639;1267;25341;-59
2023/03/22 01:22:39;;;;;;;53.00;27.00;;;;;;;8.57;91.41;100027.59;106716;1275;24235;-55
2023/03/22 01:25:11;;;;;;;56.70;26.80;;;;;;;8.56;91.47;100029.72;106639;1272;22524;-58
2023/03/22 01:27:42;;;;;;;54.40;27.00;;;;;;;8.56;91.51;100028.23;106570;1259;22526;-56
2023/03/22 01:30:14;;;;;;;53.10;26.40;;;;;;;8.56;91.66;100021.64;106565;1269;23380;-58
2023/03/22 01:32:45;;;;;;;52.70;25.80;;;;;;;8.54;91.62;100024.55;106632;1273;25511;-57
2023/03/22 01:35:16;;;;;;;54.30;26.70;;;;;;;8.54;91.71;100018.88;106586;1267;22518;-58
2023/03/22 01:37:47;;;;;;;50.80;27.40;;;;;;;8.53;91.72;100010.90;106516;1275;23938;-57
2023/03/22 01:40:18;;;;;;;51.50;25.50;;;;;;;8.53;91.82;100007.13;106737;1260;24383;-57
2023/03/22 01:42:49;;;;;;;52.00;26.80;;;;;;;8.53;91.94;100003.73;106606;1274;22535;-58
2023/03/22 01:45:41;;;;;;;54.20;26.50;;;;;;;8.53;92.00;100005.89;106637;1272;22518;-56
2023/03/22 01:48:32;;;;;;;54.40;27.50;;;;;;;8.53;92.07;99999.44;106539;1272;22508;-56
2023/03/22 01:51:09;;;;;;;55.30;27.00;;;;;;;8.53;92.06;99992.75;106683;1273;22951;-55
2023/03/22 01:53:44;;;;;;;60.80;28.10;;;;;;;8.53;92.02;99989.48;106530;1274;22524;-54
2023/03/22 01:56:17;;;;;;;56.10;25.70;;;;;;;8.53;92.10;99986.73;106587;1267;24257;-56
2023/03/22 01:58:50;;;;;;;54.50;27.80;;;;;;;8.52;92.20;99992.02;106754;1269;24259;-56
2023/03/22 02:01:21;;;;;;;55.40;27.70;;;;;;;8.53;92.16;99996.23;106545;1269;25395;-57
2023/03/22 02:03:56;;;;;;;53.30;26.20;;;;;;;8.54;92.19;100001.19;106606;1272;22567;-58
2023/03/22 02:06:28;;;;;;;51.90;25.50;;;;;;;8.55;92.23;100001.39;106606;1259;24211;-59
2023/03/22 02:08:59;;;;;;;58.60;26.80;;;;;;;8.55;92.20;100000.65;106787;1272;22563;-57
2023/03/22 02:11:33;;;;;;;51.20;25.90;;;;;;;8.57;92.24;99998.98;106590;1267;22528;-57
2023/03/22 02:14:18;;;;;;;51.50;25.80;;;;;;;8.59;92.37;99997.33;106656;1267;25288;-57
2023/03/22 02:17:02;;;;;;;52.30;26.40;;;;;;;8.58;92.19;99994.24;106600;1275;22521;-57
2023/03/22 02:20:08;;;;;;;55.10;26.10;;;;;;;8.58;92.38;99992.57;106643;1275;22524;-59
2023/03/22 02:23:06;;;;;;;55.60;26.10;;;;;;;8.58;92.44;99989.08;106678;1275;24222;-57
2023/03/22 02:26:00;;;;;;;50.20;25.60;;;;;;;8.59;92.48;99982.73;106546;1269;25108;-57
2023/03/22 02:28:38;;;;;;;51.00;26.60;;;;;;;8.60;92.59;99981.77;106543;1259;22639;-56
2023/03/22 02:31:40;;;;;;;47.90;24.20;;;;;;;8.59;92.61;99978.61;106623;1259;24372;-56
2023/03/22 02:34:43;;;;;;;55.10;26.70;;;;;;;8.57;92.67;99978.63;106584;1272;22638;-57
2023/03/22 02:37:42;;;;;;;54.00;27.80;;;;;;;8.58;92.70;99984.48;106653;1267;24257;-58
2023/03/22 02:40:18;;;;;;;55.70;25.40;;;;;;;8.57;92.84;99984.20;106733;1267;22619;-58
2023/03/22 02:42:59;;;;;;;53.20;26.00;;;;;;;8.56;92.80;99979.02;106595;1275;25332;-57
2023/03/22 02:45:35;;;;;;;50.20;26.70;;;;;;;8.55;93.05;99981.41;106694;1259;23155;-58
2023/03/22 02:48:11;;;;;;;53.10;26.80;;;;;;;8.55;92.91;99981.52;106870;1272;23754;-58
2023/03/22 02:50:48;;;;;;;53.00;27.40;;;;;;;8.55;92.99;99980.52;106540;1275;22538;-55
2023/03/22 02:53:23;;;;;;;49.30;25.80;;;;;;;8.55;93.25;99975.95;106650;1275;22517;-58
2023/03/22 02:55:59;;;;;;;57.30;27.40;;;;;;;8.55;93.27;99977.38;106598;1274;22602;-58
2023/03/22 02:58:34;;;;;;;55.40;27.80;;;;;;;8.54;93.12;99975.98;106842;1263;25123;-58
2023/03/22 03:01:09;;;;;;;53.50;27.40;;;;;;;8.54;93.10;99980.85;106506;1267;24213;-58
2023/03/22 03:03:41;;;;;;;52.90;27.80;;;;;;;8.55;93.34;99976.44;106677;1272;25240;-59
2023/03/22 03:06:18;;;;;;;55.80;26.80;;;;;;;8.56;93.28;99979.78;106572;1274;24245;-58
2023/03/22 03:08:50;;;;;;;53.00;27.10;;;;;;;8.58;93.30;99981.86;106556;1267;22565;-55
2023/03/22 03:11:22;;;;;;;54.20;27.20;;;;;;;8.60;93.33;99982.39;106672;1270;22658;-58
2023/03/22 03:13:53;;;;;;;48.70;25.00;;;;;;;8.62;93.35;99980.15;106591;1275;24266;-56
2023/03/22 03:16:28;;;;;;;53.00;27.00;;;;;;;8.63;93.37;99981.29;106518;1275;22650;-57
2023/03/22 03:19:06;;;;;;;49.60;24.50;;;;;;;8.64;93.28;99981.84;106729;1274;22566;-58
2023/03/22 03:21:45;;;;;;;52.20;25.70;;;;;;;8.65;93.40;99981.50;106646;1259;25243;-59
2023/03/22 03:24:27;;;;;;;52.50;27.00;;;;;;;8.66;93.44;99975.20;106646;1256;22576;-57
2023/03/22 03:27:04;;;;;;;48.70;25.00;;;;;;;8.66;93.57;99979.48;106729;1274;22534;-57
2023/03/22 03:29:43;;;;;;;52.00;24.80;;;;;;;8.65;93.41;99986.20;106638;1274;22658;-57
2023/03/22 03:32:19;;;;;;;49.50;25.40;;;;;;;8.63;93.43;99986.11;106612;1253;24070;-57
2023/03/22 03:34:58;;;;;;;47.70;24.60;;;;;;;8.64;93.64;99988.49;106699;1275;22595;-57
2023/03/22 03:37:32;;;;;;;45.50;24.80;;;;;;;8.63;93.64;99991.13;106877;1267;25334;-58
2023/03/22 03:40:09;;;;;;;51.90;25.60;;;;;;;8.63;93.76;99993.69;106692;1259;22730;-57
2023/03/22 03:42:44;;;;;;;48.60;24.20;;;;;;;8.63;93.75;99999.59;106748;1274;25386;-59
2023/03/22 03:45:17;;;;;;;50.50;25.20;;;;;;;8.63;93.77;100004.72;106642;1274;22530;-55
2023/03/22 03:47:55;;;;;;;46.80;24.40;;;;;;;8.65;93.85;100009.09;106679;1259;22649;-56
2023/03/22 03:50:27;;;;;;;53.10;25.00;;;;;;;8.66;93.84;100018.41;106516;1267;22518;-58
2023/03/22 03:52:58;;;;;;;48.40;25.00;;;;;;;8.65;93.77;100018.73;106655;1275;25421;-55
2023/03/22 03:55:30;;;;;;;49.40;24.60;;;;;;;8.62;93.76;100022.67;106624;1272;22630;-55
2023/03/22 03:58:01;;;;;;;54.90;27.20;;;;;;;8.62;93.85;100020.44;106557;1260;24277;-55
2023/03/22 04:00:32;;;;;;;49.00;24.30;;;;;;;8.63;93.88;100018.17;106745;1267;22528;-56
2023/03/22 04:03:04;;;;;;;53.40;25.40;;;;;;;8.63;94.05;100015.33;106589;1275;22522;-56
2023/03/22 04:05:35;;;;;;;49.20;24.00;;;;;;;8.62;94.21;100015.67;106547;1272;25355;-57
2023/03/22 04:08:07;;;;;;;50.20;23.80;;;;;;;8.62;94.17;100021.86;106592;1269;25610;-56
2023/03/22 04:10:37;;;;;;;51.20;24.70;;;;;;;8.63;94.15;100024.21;106843;1269;22640;-55
2023/03/22 04:13:09;;;;;;;52.10;25.40;;;;;;;8.65;94.18;100019.34;106518;1275;22517;-57
2023/03/22 04:15:40;;;;;;;46.70;23.00;;;;;;;8.66;94.00;100021.13;106589;1272;26396;-59
2023/03/22 04:18:11;;;;;;;47.40;24.00;;;;;;;8.66;94.24;100017.70;106682;1259;24744;-58
2023/03/22 04:20:44;;;;;;;50.10;24.20;;;;;;;8.65;94.10;100019.66;106710;1267;22602;-56
2023/03/22 04:23:15;;;;;;;51.60;26.10;;;;;;;8.66;94.16;100015.18;106571;1260;25354;-54
2023/03/22 04:25:48;;;;;;;47.20;24.30;;;;;;;8.63;94.17;100017.00;106544;1269;22573;-57
2023/03/22 04:28:20;;;;;;;54.80;25.90;;;;;;;8.61;94.36;100014.60;106629;1259;24276;-58
2023/03/22 04:30:51;;;;;;;48.00;24.70;;;;;;;8.59;94.45;100015.80;106613;1271;22516;-55
2023/03/22 04:33:22;;;;;;;50.90;24.70;;;;;;;8.60;94.47;100013.49;106570;1268;24355;-58
2023/03/22 04:35:55;;;;;;;50.00;23.30;;;;;;;8.57;94.53;100007.98;106673;1259;22517;-54
2023/03/22 04:38:26;;;;;;;50.10;23.80;;;;;;;8.56;94.60;100005.02;106655;1267;24705;-57
2023/03/22 04:40:57;;;;;;;54.40;26.10;;;;;;;8.53;94.59;100004.59;106570;1267;22616;-56
2023/03/22 04:43:28;;;;;;;51.80;27.50;;;;;;;8.52;94.71;99999.66;106486;1275;24390;-56
2023/03/22 04:46:00;;;;;;;55.90;28.40;;;;;;;8.50;94.80;99998.86;106619;1272;24842;-57
2023/03/22 04:48:31;;;;;;;56.60;25.80;;;;;;;8.51;94.69;99996.70;106727;1275;22558;-55
2023/03/22 04:51:03;;;;;;;49.70;24.60;;;;;;;8.51;94.79;99996.70;106640;1270;24278;-55
2023/03/22 04:53:37;;;;;;;51.50;25.20;;;;;;;8.52;94.74;99994.09;106503;1272;22517;-56
2023/03/22 04:56:11;;;;;;;50.80;25.90;;;;;;;8.50;94.59;99994.87;106728;1269;22556;-57
2023/03/22 04:58:43;;;;;;;47.50;24.70;;;;;;;8.50;94.71;99992.80;106663;1275;25073;-56
2023/03/22 05:01:16;;;;;;;53.10;25.50;;;;;;;8.51;94.72;99988.00;106577;1267;25095;-58
2023/03/22 05:03:47;;;;;;;48.50;24.60;;;;;;;8.51;94.70;99985.16;106625;1274;22517;-55
2023/03/22 05:06:18;;;;;;;51.20;25.90;;;;;;;8.47;94.75;99979.92;106594;1272;22514;-56
2023/03/22 05:08:49;;;;;;;55.40;27.70;;;;;;;8.44;95.01;99979.38;106546;1262;25397;-58
2023/03/22 05:11:20;;;;;;;48.50;25.30;;;;;;;8.42;94.91;99977.27;106542;1269;22517;-55
2023/03/22 05:13:51;;;;;;;51.00;26.50;;;;;;;8.42;95.11;99975.48;106680;1274;22641;-59
2023/03/22 05:16:23;;;;;;;54.70;26.80;;;;;;;8.43;94.99;99968.93;106577;1267;22514;-58
2023/03/22 05:18:54;;;;;;;53.50;27.00;;;;;;;8.43;94.95;99967.88;106542;1269;26285;-58
2023/03/22 05:21:27;;;;;;;59.30;25.20;;;;;;;8.43;94.86;99969.70;106615;1260;24258;-54
2023/03/22 05:23:59;;;;;;;56.20;28.40;;;;;;;8.43;95.15;99975.42;106601;1274;22516;-59
2023/03/22 05:26:30;;;;;;;53.70;26.00;;;;;;;8.42;95.08;99978.08;106605;1269;24267;-58
2023/03/22 05:29:01;;;;;;;51.10;27.40;;;;;;;8.41;95.31;99978.31;106712;1272;25327;-59
2023/03/22 05:31:33;;;;;;;60.60;27.80;;;;;;;8.39;95.24;99976.80;106628;1274;22521;-58
2023/03/22 05:34:04;;;;;;;57.60;29.80;;;;;;;8.38;95.47;99981.23;106543;1263;24345;-60
2023/03/22 05:36:36;;;;;;;55.90;28.90;;;;;;;8.37;95.57;99981.20;106675;1274;25471;-58
2023/03/22 05:39:07;;;;;;;53.00;26.90;;;;;;;8.37;95.70;99987.48;106709;1272;22563;-56
2023/03/22 05:41:38;;;;;;;53.80;27.50;;;;;;;8.37;95.67;99991.56;106600;1274;22517;-58
2023/03/22 05:44:09;;;;;;;57.20;27.90;;;;;;;8.37;95.68;99991.92;106610;1259;22607;-56
2023/03/22 05:46:40;;;;;;;58.00;30.20;;;;;;;8.36;95.98;99991.18;106626;1274;22523;-59
2023/03/22 05:49:11;;;;;;;62.20;31.80;;;;;;;8.36;96.01;99994.32;106668;1268;22541;-58
2023/03/22 05:51:42;;;;;;;54.60;28.50;;;;;;;8.37;96.12;99994.90;106571;1272;24232;-60
2023/03/22 05:54:13;;;;;;;59.70;29.40;;;;;;;8.38;96.34;99997.20;106635;1272;22521;-57
2023/03/22 05:56:44;;;;;;;61.10;29.50;;;;;;;8.39;96.46;99999.50;106605;1259;25242;-59
2023/03/22 05:59:15;;;;;;;54.70;28.50;;;;;;;8.40;96.56;99999.12;106600;1267;24241;-59
2023/03/22 06:01:46;;;;;;;59.00;29.10;;;;;;;8.41;96.72;99997.53;106537;1274;22539;-61
2023/03/22 06:04:17;;;;;;;53.50;27.90;;;;;;;8.44;96.76;99992.70;106564;1269;25258;-58
2023/03/22 06:06:49;;;;;;;66.70;35.60;;;;;;;8.48;96.92;99992.28;106598;1267;25875;-59
2023/03/22 06:09:20;;;;;;;68.60;38.30;;;;;;;8.49;96.83;99994.60;106783;1259;23001;-60
2023/03/22 06:11:50;;;;;;;67.60;36.80;;;;;;;8.51;96.99;99997.63;106684;1274;22518;-59
2023/03/22 06:14:21;;;;;;;64.50;35.30;;;;;;;8.52;97.02;99995.72;106588;1260;22517;-60
2023/03/22 06:16:52;;;;;;;71.90;38.30;;;;;;;8.55;97.11;99993.27;106595;1275;25572;-60
2023/03/22 06:19:24;;;;;;;91.30;56.00;;;;;;;8.59;97.33;99988.89;106621;1275;22552;-60
2023/03/22 06:21:55;;;;;;;94.60;59.90;;;;;;;8.62;97.37;99991.50;106585;1274;25373;-60
2023/03/22 06:24:26;;;;;;;83.00;51.60;;;;;;;8.64;97.54;99994.42;106567;1275;22771;-57
2023/03/22 06:26:57;;;;;;;72.70;41.50;;;;;;;8.66;97.72;99991.88;106551;1272;22647;-59
2023/03/22 06:29:28;;;;;;;67.10;37.50;;;;;;;8.68;97.59;99989.20;106578;1260;22570;-58
2023/03/22 06:31:59;;;;;;;65.10;35.40;;;;;;;8.73;97.83;99993.45;106605;1275;22519;-59
2023/03/22 06:34:30;;;;;;;65.00;32.60;;;;;;;8.77;97.92;99985.41;106513;1269;23787;-59
2023/03/22 06:37:01;;;;;;;57.60;30.80;;;;;;;8.83;97.97;99985.70;106490;1275;24476;-60
2023/03/22 06:39:32;;;;;;;59.00;30.80;;;;;;;8.87;98.18;99983.25;106809;1275;22533;-60
2023/03/22 06:42:03;;;;;;;61.10;32.20;;;;;;;8.93;98.27;99984.59;106598;1269;22520;-58
2023/03/22 06:44:35;;;;;;;65.20;34.00;;;;;;;8.99;98.46;99987.54;106629;1274;22583;-59
2023/03/22 06:47:06;;;;;;;63.40;32.20;;;;;;;9.06;98.44;99988.95;106698;1275;22529;-60
2023/03/22 06:49:37;;;;;;;61.80;30.90;;;;;;;9.13;98.85;99993.71;106672;1275;22528;-57
2023/03/22 06:52:09;;;;;;;60.10;31.40;;;;;;;9.22;98.64;99995.27;106593;1259;22524;-59
2023/03/22 06:54:40;;;;;;;63.30;31.50;;;;;;;9.30;98.87;99996.70;106670;1267;26304;-59
2023/03/22 06:57:11;;;;;;;62.50;32.80;;;;;;;9.38;99.06;99998.11;106639;1268;22520;-59
2023/03/22 06:59:42;;;;;;;57.40;31.30;;;;;;;9.45;99.01;99996.70;106815;1260;25295;-60
2023/03/22 07:02:14;;;;;;;67.10;31.70;;;;;;;9.52;98.77;100001.34;106582;1267;25423;-61
2023/03/22 07:04:46;;;;;;;59.80;30.40;;;;;;;9.57;98.62;100001.85;106643;1275;22547;-61
2023/03/22 07:07:17;;;;;;;61.40;30.60;;;;;;;9.63;98.85;100000.44;106673;1259;22586;-60
2023/03/22 07:09:49;;;;;;;59.00;31.50;;;;;;;9.69;98.77;100005.11;106554;1268;22524;-63
2023/03/22 07:12:20;;;;;;;62.90;31.70;;;;;;;9.75;98.69;100008.31;106769;1274;24271;-59
2023/03/22 07:14:51;;;;;;;59.60;32.00;;;;;;;9.82;98.63;100008.34;106802;1268;22629;-60
2023/03/22 07:17:22;;;;;;;56.10;30.30;;;;;;;9.91;98.70;100010.92;106587;1260;22628;-60
2023/03/22 07:19:53;;;;;;;55.40;31.10;;;;;;;9.97;98.75;100010.08;106817;1275;22647;-62
2023/03/22 07:22:26;;;;;;;54.20;29.40;;;;;;;10.05;98.62;100005.53;106842;1275;22533;-59
2023/03/22 07:24:57;;;;;;;58.70;30.60;;;;;;;10.12;98.40;100006.00;106686;1272;22543;-59
2023/03/22 07:27:28;;;;;;;53.80;29.70;;;;;;;10.19;98.33;100006.48;106665;1272;22516;-59
2023/03/22 07:29:59;;;;;;;54.30;28.70;;;;;;;10.27;98.48;99996.98;106614;1259;22529;-65
2023/03/22 07:32:30;;;;;;;57.00;29.10;;;;;;;10.35;98.40;99990.86;106728;1275;25243;-59
2023/03/22 07:35:01;;;;;;;53.40;29.00;;;;;;;10.43;98.19;99992.50;106644;1275;25298;-58
2023/03/22 07:37:32;;;;;;;58.10;30.30;;;;;;;10.51;98.37;99989.42;106597;1271;26532;-61
2023/03/22 07:40:03;;;;;;;53.90;29.10;;;;;;;10.57;98.10;99990.55;106532;1270;22633;-61
2023/03/22 07:42:35;;;;;;;56.10;29.70;;;;;;;10.64;97.83;99989.66;106731;1272;25351;-61
2023/03/22 07:45:07;;;;;;;53.40;28.40;;;;;;;10.70;97.69;99993.30;106743;1268;22520;-61
2023/03/22 07:47:38;;;;;;;55.70;29.80;;;;;;;10.76;97.99;99983.50;106679;1274;22580;-60
2023/03/22 07:50:12;;;;;;;54.60;29.20;;;;;;;10.84;97.91;99983.21;106576;1275;24278;-59
2023/03/22 07:52:43;;;;;;;50.00;28.40;;;;;;;10.91;97.67;99982.49;106688;1274;22514;-60
2023/03/22 07:55:15;;;;;;;49.60;28.50;;;;;;;10.97;97.31;99981.77;106656;1275;25078;-60
2023/03/22 07:57:46;;;;;;;49.80;27.70;;;;;;;11.03;97.30;99972.90;106674;1267;22517;-59
2023/03/22 08:00:19;;;;;;;49.40;28.40;;;;;;;11.10;97.06;99972.27;106692;1271;22514;-59
2023/03/22 08:02:50;;;;;;;49.90;29.20;;;;;;;11.17;96.62;99976.88;106738;1259;22517;-59
2023/03/22 08:05:22;;;;;;;53.20;28.30;;;;;;;11.23;96.62;99974.83;106571;1260;24272;-60
2023/03/22 08:07:55;;;;;;;45.70;25.90;;;;;;;11.30;96.35;99969.73;106809;1274;25240;-61
2023/03/22 08:10:26;;;;;;;49.30;25.90;;;;;;;11.41;96.46;99966.39;106794;1267;25500;-60
2023/03/22 08:12:57;;;;;;;45.70;24.30;;;;;;;11.53;96.38;99970.94;106660;1268;22612;-60
2023/03/22 08:15:28;;;;;;;40.40;23.10;;;;;;;11.63;95.40;99971.86;106573;1274;25244;-61
2023/03/22 08:18:00;;;;;;;42.10;23.00;;;;;;;11.70;95.39;99973.45;106616;1253;24193;-61
2023/03/22 08:20:32;;;;;;;45.20;23.20;;;;;;;11.80;95.38;99972.98;106653;1260;23087;-60
2023/03/22 08:23:04;;;;;;;39.20;20.70;;;;;;;11.92;95.24;99966.07;106738;1275;24307;-60
2023/03/22 08:25:35;;;;;;;39.70;21.70;;;;;;;12.03;94.66;99965.83;106632;1268;22657;-59
2023/03/22 08:28:07;;;;;;;36.70;20.50;;;;;;;12.16;94.15;99965.27;106591;1272;22569;-62
2023/03/22 08:30:38;;;;;;;37.90;21.20;;;;;;;12.26;93.99;99964.54;106574;1271;22537;-59
2023/03/22 08:33:10;;;;;;;39.30;20.20;;;;;;;12.34;93.29;99968.98;106699;1269;24268;-59
2023/03/22 08:35:41;;;;;;;37.60;19.80;;;;;;;12.42;92.69;99967.90;106660;1272;25819;-60
2023/03/22 08:38:13;;;;;;;36.60;20.90;;;;;;;12.45;92.25;99963.23;106618;1269;24205;-60
2023/03/22 08:40:47;;;;;;;34.70;19.70;;;;;;;12.47;92.15;99962.55;106598;1274;22621;-59
2023/03/22 08:43:19;;;;;;;36.80;18.40;;;;;;;12.52;91.48;99964.31;106784;1275;25307;-60
2023/03/22 08:45:50;;;;;;;32.20;18.30;;;;;;;12.55;91.25;99968.61;106897;1269;22644;-61
2023/03/22 08:48:22;;;;;;;33.40;18.50;;;;;;;12.61;91.52;99967.33;106713;1259;22528;-60
2023/03/22 08:50:53;;;;;;;35.00;20.90;;;;;;;12.70;91.46;99968.52;106830;1271;22507;-61
2023/03/22 08:53:24;;;;;;;35.60;19.90;;;;;;;12.79;91.28;99967.73;106601;1275;23067;-61
2023/03/22 08:55:56;;;;;;;36.60;20.20;;;;;;;12.89;90.61;99964.38;106632;1275;24490;-60
2023/03/22 08:58:28;;;;;;;38.10;20.70;;;;;;;12.95;89.41;99958.20;106658;1267;22517;-62
2023/03/22 09:01:00;;;;;;;37.70;20.50;;;;;;;12.98;89.50;99955.77;106690;1272;22517;-59
2023/03/22 09:03:31;;;;;;;37.50;21.00;;;;;;;13.02;89.36;99958.64;106645;1252;25294;-59
2023/03/22 09:06:02;;;;;;;37.80;21.20;;;;;;;13.07;89.01;99956.30;106701;1272;22568;-59
2023/03/22 09:08:33;;;;;;;38.20;21.30;;;;;;;13.07;88.29;99959.77;106670;1267;23057;-60
2023/03/22 09:11:04;;;;;;;35.30;20.50;;;;;;;13.08;88.62;99957.22;106794;1272;22670;-60
2023/03/22 09:13:36;;;;;;;32.80;18.20;;;;;;;13.11;88.18;99955.90;106670;1275;24304;-59
2023/03/22 09:16:08;;;;;;;31.80;18.20;;;;;;;13.14;87.68;99950.71;106571;1275;22514;-60
2023/03/22 09:18:41;;;;;;;35.40;19.40;;;;;;;13.15;87.33;99946.80;106719;1271;22540;-61
2023/03/22 09:21:12;;;;;;;35.80;20.10;;;;;;;13.18;87.33;99945.90;106855;1271;24262;-61
2023/03/22 09:23:46;;;;;;;33.00;18.80;;;;;;;13.23;87.17;99946.52;106643;1259;23839;-62
2023/03/22 09:26:17;;;;;;;35.30;20.10;;;;;;;13.24;86.98;99943.37;106588;1275;22517;-60
2023/03/22 09:28:48;;;;;;;36.10;19.30;;;;;;;13.28;86.70;99940.63;106571;1269;23238;-60
2023/03/22 09:31:19;;;;;;;34.00;20.00;;;;;;;13.29;86.38;99936.23;106765;1259;26211;-61
2023/03/22 09:33:51;;;;;;;28.80;15.80;;;;;;;13.30;85.95;99938.15;106690;1269;22520;-60
2023/03/22 09:36:22;;;;;;;29.00;16.30;;;;;;;13.33;85.53;99934.42;106711;1272;22533;-60
2023/03/22 09:38:53;;;;;;;28.90;15.60;;;;;;;13.36;85.11;99931.58;106830;1253;22520;-60
2023/03/22 09:41:32;;;;;;;30.80;16.60;;;;;;;13.38;85.03;99930.70;106649;1267;22521;-59
2023/03/22 09:44:06;;;;;;;32.10;16.70;;;;;;;13.45;84.83;99930.58;106695;1275;22742;-60
2023/03/22 09:46:41;;;;;;;32.80;17.60;;;;;;;13.56;84.69;99930.66;106846;1275;25376;-62
2023/03/22 09:49:18;;;;;;;30.90;17.10;;;;;;;13.69;84.61;99931.02;106856;1264;25261;-60
2023/03/22 09:51:51;;;;;;;30.80;15.20;;;;;;;13.82;84.18;99927.43;106837;1275;22520;-59
2023/03/22 09:54:32;;;;;;;28.10;16.10;;;;;;;13.92;83.78;99926.98;106811;1270;25623;-60
2023/03/22 09:57:10;;;;;;;31.50;17.20;;;;;;;13.98;83.08;99923.77;106679;1268;22640;-59
2023/03/22 09:59:51;;;;;;;30.40;15.50;;;;;;;14.00;82.62;99921.84;106719;1269;22627;-59
2023/03/22 10:02:47;;;;;;;25.50;13.70;;;;;;;14.04;81.67;99927.23;106775;1275;22612;-61
2023/03/22 10:05:27;;;;;;;28.30;15.90;;;;;;;14.09;81.86;99923.80;106752;1264;22554;-62
2023/03/22 10:08:21;;;;;;;30.90;17.20;;;;;;;14.13;82.02;99919.71;106848;1275;22521;-62
2023/03/22 10:10:53;;;;;;;28.80;15.70;;;;;;;14.17;81.29;99920.19;106564;1281;25545;-62
2023/03/22 10:13:31;;;;;;;25.50;14.90;;;;;;;14.21;81.24;99915.28;106608;1274;25288;-65
2023/03/22 10:16:20;;;;;;;28.20;14.20;;;;;;;14.24;80.44;99913.50;106146;1274;25296;-61
2023/03/22 10:18:55;;;;;;;27.40;13.40;;;;;;;14.28;80.79;99917.23;106248;1274;22543;-61
2023/03/22 10:21:29;;;;;;;25.90;14.10;;;;;;;14.37;80.94;99913.60;106303;1278;22629;-61
2023/03/22 10:24:05;;;;;;;23.80;13.30;;;;;;;14.45;80.71;99915.44;106348;1268;27161;-60
2023/03/22 10:26:39;;;;;;;29.00;15.80;;;;;;;14.52;80.65;99916.39;106458;1278;22599;-61
2023/03/22 10:29:17;;;;;;;29.40;14.50;;;;;;;14.60;79.85;99911.21;102380;1281;5431519;-61
2023/03/22 10:31:48;;;;;;;27.30;13.60;;;;;;;14.66;79.58;99917.52;106257;1281;22545;-63
2023/03/22 10:34:22;;;;;;;27.10;13.10;;;;;;;14.74;78.67;99910.71;106186;1274;25525;-61
2023/03/22 10:36:55;;;;;;;26.60;13.80;;;;;;;14.77;78.62;99906.38;106423;1268;22555;-60
2023/03/22 10:39:34;;;;;;;26.50;14.40;;;;;;;14.81;78.88;99909.76;106270;1268;22619;-61
2023/03/22 10:42:08;;;;;;;23.80;11.90;;;;;;;14.90;78.49;99909.78;106254;1270;25470;-61
2023/03/22 10:44:46;;;;;;;27.10;13.60;;;;;;;14.98;78.14;99907.45;106276;1268;25297;-61
2023/03/22 10:47:28;;;;;;;23.80;12.40;;;;;;;15.10;78.17;99913.12;106240;1274;22533;-63
2023/03/22 10:50:02;;;;;;;24.00;11.10;;;;;;;15.20;77.59;99908.84;106624;1269;25588;-61
2023/03/22 10:52:46;;;;;;;23.50;11.90;;;;;;;15.22;76.64;99909.03;107020;1275;23354;-62
2023/03/22 10:55:18;;;;;;;24.50;11.00;;;;;;;15.28;77.40;99906.13;106741;1267;22595;-61
2023/03/22 10:57:56;;;;;;;26.00;12.20;;;;;;;15.35;76.97;99905.52;106874;1272;24235;-62
2023/03/22 11:00:28;;;;;;;23.50;12.00;;;;;;;15.40;76.17;99898.54;106842;1272;24334;-62
2023/03/22 11:03:02;;;;;;;25.60;12.50;;;;;;;15.44;76.28;99899.73;106891;1274;25512;-63
2023/03/22 11:05:33;;;;;;;23.90;10.80;;;;;;;15.50;75.92;99898.15;106821;1275;24274;-62
2023/03/22 11:08:05;;;;;;;24.90;12.90;;;;;;;15.54;75.31;99893.42;106808;1275;24487;-61
2023/03/22 11:10:36;;;;;;;23.90;12.30;;;;;;;15.58;75.85;99894.27;106770;1275;22523;-60
2023/03/22 11:13:21;;;;;;;22.70;11.80;;;;;;;15.65;75.46;99890.90;106860;1269;25243;-62
2023/03/22 11:15:55;;;;;;;26.00;10.90;;;;;;;15.70;75.49;99884.82;106854;1267;22516;-61
2023/03/22 11:18:30;;;;;;;19.00;9.90;;;;;;;15.81;75.58;99881.42;106851;1272;22520;-61
2023/03/22 11:21:06;;;;;;;20.90;10.10;;;;;;;15.91;75.27;99878.91;106790;1274;22511;-61
2023/03/22 11:23:42;;;;;;;19.90;10.50;;;;;;;16.00;74.95;99877.25;106845;1269;22628;-62
2023/03/22 11:26:14;;;;;;;20.60;9.30;;;;;;;16.04;73.70;99872.88;106799;1260;22595;-62
2023/03/22 11:28:50;;;;;;;22.20;10.40;;;;;;;16.07;73.60;99869.77;106708;1275;22573;-62
2023/03/22 12:27:08;;;;;;;19.20;8.50;;;;;;;17.03;69.00;99804.08;103064;1312;560426;-61
2023/03/22 12:29:44;;;;;;;18.30;9.20;;;;;;;17.17;68.04;99798.38;105224;1283;5382929;-62
2023/03/22 12:32:23;;;;;;;20.70;10.00;;;;;;;17.21;67.71;99800.11;109479;1283;22862;-62
2023/03/22 12:34:55;;;;;;;21.90;9.70;;;;;;;17.24;67.69;99790.38;109485;1284;22190;-62
2023/03/22 12:37:31;;;;;;;18.60;8.00;;;;;;;17.28;67.53;99793.91;109484;1279;22272;-61